sensor_id;sensor_type;location;lat;lon;timestamp;pressure;altitude;pressure_sealevel;temperature;humidity
20003;BME280;10162;41.600;23.806;2023-04-25T00:01:03;94569.00;;;9.92;100.00
20003;BME280;10162;41.600;23.806;2023-04-25T00:03:39;94571.16;;;10.22;100.00
20003;BME280;10162;41.600;23.806;2023-04-25T00:06:06;94566.63;;;10.49;100.00
20003;BME280;10162;41.600;23.806;2023-04-25T00:08:33;94561.34;;;10.04;100.00
20003;BME280;10162;41.600;23.806;2023-04-25T00:14:53;94558.91;;;10.09;100.00
20003;BME280;10162;41.600;23.806;2023-04-25T00:17:20;94565.91;;;10.35;100.00
20003;BME280;10162;41.600;23.806;2023-04-25T00:23:40;94538.38;;;10.26;100.00
20003;BME280;10162;41.600;23.806;2023-04-25T00:26:06;94538.44;;;10.19;100.00
20003;BME280;10162;41.600;23.806;2023-04-25T00:28:32;94549.28;;;10.16;100.00
20003;BME280;10162;41.600;23.806;2023-04-25T00:33:55;94532.91;;;10.41;100.00
20003;BME280;10162;41.600;23.806;2023-04-25T00:36:21;94528.88;;;10.45;100.00
20003;BME280;10162;41.600;23.806;2023-04-25T00:38:48;94534.94;;;10.32;100.00
20003;BME280;10162;41.600;23.806;2023-04-25T00:41:19;94525.56;;;10.11;100.00
20003;BME280;10162;41.600;23.806;2023-04-25T00:43:45;94527.38;;;10.04;100.00
20003;BME280;10162;41.600;23.806;2023-04-25T00:46:11;94519.53;;;10.17;100.00
20003;BME280;10162;41.600;23.806;2023-04-25T00:48:37;94539.94;;;10.40;100.00
20003;BME280;10162;41.600;23.806;2023-04-25T00:54:31;94536.69;;;9.80;100.00
20003;BME280;10162;41.600;23.806;2023-04-25T00:56:57;94525.84;;;9.77;100.00
20003;BME280;10162;41.600;23.806;2023-04-25T00:59:24;94529.44;;;9.89;100.00
20003;BME280;10162;41.600;23.806;2023-04-25T01:05:45;94527.72;;;10.27;100.00
20003;BME280;10162;41.600;23.806;2023-04-25T01:08:13;94527.69;;;10.41;100.00
20003;BME280;10162;41.600;23.806;2023-04-25T01:14:33;94507.88;;;10.20;100.00
20003;BME280;10162;41.600;23.806;2023-04-25T01:16:59;94508.63;;;10.33;100.00
20003;BME280;10162;41.600;23.806;2023-04-25T01:19:25;94494.03;;;10.06;100.00
20003;BME280;10162;41.600;23.806;2023-04-25T01:25:45;94511.38;;;9.87;100.00
20003;BME280;10162;41.600;23.806;2023-04-25T01:28:11;94501.94;;;9.80;100.00
20003;BME280;10162;41.600;23.806;2023-04-25T01:34:31;94509.88;;;10.24;100.00
20003;BME280;10162;41.600;23.806;2023-04-25T01:36:59;94495.69;;;9.94;100.00
20003;BME280;10162;41.600;23.806;2023-04-25T01:39:28;94497.31;;;9.82;100.00
20003;BME280;10162;41.600;23.806;2023-04-25T01:45:49;94496.66;;;10.00;100.00
20003;BME280;10162;41.600;23.806;2023-04-25T01:48:16;94492.00;;;10.08;100.00
20003;BME280;10162;41.600;23.806;2023-04-25T01:54:37;94491.47;;;10.44;100.00
20003;BME280;10162;41.600;23.806;2023-04-25T01:57:03;94485.09;;;10.33;100.00
20003;BME280;10162;41.600;23.806;2023-04-25T01:59:30;94475.34;;;10.03;100.00
20003;BME280;10162;41.600;23.806;2023-04-25T02:02:35;94465.47;;;9.60;100.00
20003;BME280;10162;41.600;23.806;2023-04-25T02:05:02;94483.28;;;9.76;100.00
20003;BME280;10162;41.600;23.806;2023-04-25T02:07:29;94461.44;;;9.64;100.00
20003;BME280;10162;41.600;23.806;2023-04-25T02:13:50;94448.41;;;9.58;100.00
20003;BME280;10162;41.600;23.806;2023-04-25T02:16:54;94465.13;;;9.30;100.00
20003;BME280;10162;41.600;23.806;2023-04-25T02:19:20;94465.28;;;9.62;100.00
20003;BME280;10162;41.600;23.806;2023-04-25T02:24:57;94458.97;;;9.82;100.00
20003;BME280;10162;41.600;23.806;2023-04-25T02:27:23;94462.34;;;9.96;100.00
20003;BME280;10162;41.600;23.806;2023-04-25T02:29:49;94457.94;;;9.97;100.00
20003;BME280;10162;41.600;23.806;2023-04-25T02:32:15;94459.63;;;9.65;100.00
20003;BME280;10162;41.600;23.806;2023-04-25T02:34:42;94440.44;;;9.33;100.00
20003;BME280;10162;41.600;23.806;2023-04-25T02:37:08;94453.59;;;9.64;100.00
20003;BME280;10162;41.600;23.806;2023-04-25T02:39:35;94462.59;;;9.81;100.00
20003;BME280;10162;41.600;23.806;2023-04-25T02:45:55;94470.25;;;9.63;100.00
20003;BME280;10162;41.600;23.806;2023-04-25T02:48:22;94447.84;;;9.29;100.00
20003;BME280;10162;41.600;23.806;2023-04-25T02:54:42;94457.50;;;9.22;100.00
20003;BME280;10162;41.600;23.806;2023-04-25T02:57:08;94454.91;;;9.16;100.00
20003;BME280;10162;41.600;23.806;2023-04-25T02:59:36;94465.16;;;9.10;100.00
20003;BME280;10162;41.600;23.806;2023-04-25T03:05:57;94463.13;;;9.12;100.00
20003;BME280;10162;41.600;23.806;2023-04-25T03:08:28;94453.69;;;9.18;100.00
20003;BME280;10162;41.600;23.806;2023-04-25T03:11:32;94482.97;;;9.00;100.00
20003;BME280;10162;41.600;23.806;2023-04-25T03:13:58;94459.31;;;8.69;100.00
20003;BME280;10162;41.600;23.806;2023-04-25T03:16:24;94454.50;;;8.73;100.00
20003;BME280;10162;41.600;23.806;2023-04-25T03:18:50;94469.97;;;8.94;100.00
20003;BME280;10162;41.600;23.806;2023-04-25T03:25:11;94478.78;;;8.99;100.00
20003;BME280;10162;41.600;23.806;2023-04-25T03:27:38;94461.72;;;8.90;100.00
20003;BME280;10162;41.600;23.806;2023-04-25T03:33:59;94465.13;;;8.64;100.00
20003;BME280;10162;41.600;23.806;2023-04-25T03:36:25;94463.31;;;8.58;100.00
20003;BME280;10162;41.600;23.806;2023-04-25T03:38:50;94461.72;;;8.64;100.00
20003;BME280;10162;41.600;23.806;2023-04-25T03:45:12;94446.47;;;9.20;100.00
20003;BME280;10162;41.600;23.806;2023-04-25T03:47:38;94451.09;;;9.05;100.00
20003;BME280;10162;41.600;23.806;2023-04-25T03:53:58;94461.69;;;9.43;100.00
20003;BME280;10162;41.600;23.806;2023-04-25T03:56:30;94470.50;;;9.55;100.00
20003;BME280;10162;41.600;23.806;2023-04-25T03:59:03;94463.31;;;9.31;100.00
20003;BME280;10162;41.600;23.806;2023-04-25T04:01:48;94446.66;;;9.12;100.00
20003;BME280;10162;41.600;23.806;2023-04-25T04:04:14;94460.31;;;9.34;100.00
20003;BME280;10162;41.600;23.806;2023-04-25T04:06:40;94469.25;;;9.71;100.00
20003;BME280;10162;41.600;23.806;2023-04-25T04:09:12;94439.03;;;9.37;100.00
20003;BME280;10162;41.600;23.806;2023-04-25T04:15:04;94466.72;;;9.25;100.00
20003;BME280;10162;41.600;23.806;2023-04-25T04:17:32;94475.72;;;9.48;100.00
20003;BME280;10162;41.600;23.806;2023-04-25T04:23:19;94474.47;;;9.64;100.00
20003;BME280;10162;41.600;23.806;2023-04-25T04:25:46;94478.31;;;9.62;100.00
20003;BME280;10162;41.600;23.806;2023-04-25T04:28:25;94484.91;;;9.77;100.00
20003;BME280;10162;41.600;23.806;2023-04-25T04:31:22;94475.09;;;9.60;100.00
20003;BME280;10162;41.600;23.806;2023-04-25T04:33:50;94473.84;;;9.82;100.00
20003;BME280;10162;41.600;23.806;2023-04-25T04:36:16;94460.59;;;9.77;100.00
20003;BME280;10162;41.600;23.806;2023-04-25T04:38:47;94459.19;;;9.74;100.00
20003;BME280;10162;41.600;23.806;2023-04-25T04:45:16;94476.03;;;9.85;100.00
20003;BME280;10162;41.600;23.806;2023-04-25T04:47:55;94474.34;;;10.10;100.00
20003;BME280;10162;41.600;23.806;2023-04-25T04:54:35;94474.13;;;10.18;100.00
20003;BME280;10162;41.600;23.806;2023-04-25T04:57:23;94465.00;;;9.83;100.00
20003;BME280;10162;41.600;23.806;2023-04-25T05:00:10;94450.03;;;10.03;100.00
20003;BME280;10162;41.600;23.806;2023-04-25T05:06:46;94461.78;;;10.70;100.00
20003;BME280;10162;41.600;23.806;2023-04-25T05:09:27;94451.78;;;10.60;100.00
20003;BME280;10162;41.600;23.806;2023-04-25T05:12:13;94447.63;;;10.77;100.00
20003;BME280;10162;41.600;23.806;2023-04-25T05:14:58;94458.16;;;10.96;100.00
20003;BME280;10162;41.600;23.806;2023-04-25T05:17:40;94439.88;;;11.21;100.00
20003;BME280;10162;41.600;23.806;2023-04-25T05:24:12;94433.72;;;11.51;100.00
20003;BME280;10162;41.600;23.806;2023-04-25T05:27:18;94449.09;;;11.66;100.00
20003;BME280;10162;41.600;23.806;2023-04-25T05:33:20;94438.44;;;11.43;100.00
20003;BME280;10162;41.600;23.806;2023-04-25T05:35:46;94439.53;;;11.53;100.00
20003;BME280;10162;41.600;23.806;2023-04-25T05:38:11;94446.22;;;11.31;100.00
20003;BME280;10162;41.600;23.806;2023-04-25T05:44:58;94437.16;;;11.70;100.00
20003;BME280;10162;41.600;23.806;2023-04-25T05:47:51;94442.94;;;11.79;100.00
20003;BME280;10162;41.600;23.806;2023-04-25T05:54:31;94442.44;;;11.88;100.00
20003;BME280;10162;41.600;23.806;2023-04-25T05:56:59;94442.97;;;11.72;100.00
20003;BME280;10162;41.600;23.806;2023-04-25T05:59:25;94438.69;;;11.59;100.00
20003;BME280;10162;41.600;23.806;2023-04-25T06:05:12;94437.16;;;11.70;100.00
20003;BME280;10162;41.600;23.806;2023-04-25T06:07:37;94440.69;;;11.82;100.00
20003;BME280;10162;41.600;23.806;2023-04-25T06:13:59;94449.63;;;11.75;100.00
20003;BME280;10162;41.600;23.806;2023-04-25T06:16:24;94426.88;;;11.32;100.00
20003;BME280;10162;41.600;23.806;2023-04-25T06:18:51;94446.63;;;11.71;100.00
20003;BME280;10162;41.600;23.806;2023-04-25T06:25:12;94450.69;;;12.04;100.00
20003;BME280;10162;41.600;23.806;2023-04-25T06:27:38;94429.53;;;12.05;100.00
20003;BME280;10162;41.600;23.806;2023-04-25T06:33:12;94444.66;;;12.03;100.00
20003;BME280;10162;41.600;23.806;2023-04-25T06:35:39;94435.88;;;11.97;100.00
20003;BME280;10162;41.600;23.806;2023-04-25T06:38:08;94431.50;;;11.91;100.00
20003;BME280;10162;41.600;23.806;2023-04-25T06:44:29;94429.84;;;12.57;100.00
20003;BME280;10162;41.600;23.806;2023-04-25T06:46:57;94436.56;;;13.06;100.00
20003;BME280;10162;41.600;23.806;2023-04-25T06:49:23;94431.03;;;12.72;100.00
20003;BME280;10162;41.600;23.806;2023-04-25T06:55:43;94422.00;;;13.21;100.00
20003;BME280;10162;41.600;23.806;2023-04-25T06:58:20;94429.47;;;12.95;100.00
20003;BME280;10162;41.600;23.806;2023-04-25T07:01:17;94430.78;;;12.32;100.00
20003;BME280;10162;41.600;23.806;2023-04-25T07:07:39;94441.00;;;12.52;100.00
20003;BME280;10162;41.600;23.806;2023-04-25T07:10:14;94457.00;;;12.14;100.00
20003;BME280;10162;41.600;23.806;2023-04-25T07:12:40;94424.41;;;12.28;100.00
20003;BME280;10162;41.600;23.806;2023-04-25T07:15:06;94432.69;;;12.55;100.00
20003;BME280;10162;41.600;23.806;2023-04-25T07:17:37;94429.81;;;12.87;100.00
20003;BME280;10162;41.600;23.806;2023-04-25T07:20:05;94436.41;;;13.42;100.00
20003;BME280;10162;41.600;23.806;2023-04-25T07:22:32;94427.47;;;13.67;100.00
20003;BME280;10162;41.600;23.806;2023-04-25T07:24:58;94427.41;;;14.41;100.00
20003;BME280;10162;41.600;23.806;2023-04-25T07:27:27;94401.91;;;14.30;100.00
20003;BME280;10162;41.600;23.806;2023-04-25T07:30:12;94407.00;;;14.77;97.37
20003;BME280;10162;41.600;23.806;2023-04-25T07:32:39;94415.38;;;14.74;97.29
20003;BME280;10162;41.600;23.806;2023-04-25T07:35:05;94416.50;;;14.95;95.47
20003;BME280;10162;41.600;23.806;2023-04-25T07:37:33;94414.88;;;14.77;98.23
20003;BME280;10162;41.600;23.806;2023-04-25T07:40:22;94425.19;;;15.28;96.74
20003;BME280;10162;41.600;23.806;2023-04-25T07:42:52;94429.81;;;15.21;93.72
20003;BME280;10162;41.600;23.806;2023-04-25T07:45:29;94426.00;;;15.29;93.04
20003;BME280;10162;41.600;23.806;2023-04-25T07:47:56;94419.19;;;15.33;93.51
20003;BME280;10162;41.600;23.806;2023-04-25T07:50:23;94423.97;;;15.69;90.96
20003;BME280;10162;41.600;23.806;2023-04-25T07:52:56;94426.97;;;15.78;88.99
20003;BME280;10162;41.600;23.806;2023-04-25T07:55:29;94418.47;;;15.21;94.05
20003;BME280;10162;41.600;23.806;2023-04-25T07:58:14;94417.31;;;15.12;96.43
20003;BME280;10162;41.600;23.806;2023-04-25T08:04:38;94421.84;;;16.32;86.22
20003;BME280;10162;41.600;23.806;2023-04-25T08:07:07;94427.88;;;16.05;88.53
20003;BME280;10162;41.600;23.806;2023-04-25T08:09:51;94416.25;;;16.06;85.77
20003;BME280;10162;41.600;23.806;2023-04-25T08:12:24;94425.72;;;16.02;85.03
20003;BME280;10162;41.600;23.806;2023-04-25T08:14:50;94421.66;;;15.95;86.54
20003;BME280;10162;41.600;23.806;2023-04-25T08:17:16;94428.69;;;15.89;85.70
20003;BME280;10162;41.600;23.806;2023-04-25T08:19:42;94418.41;;;16.09;87.06
20003;BME280;10162;41.600;23.806;2023-04-25T08:22:16;94424.84;;;16.19;86.46
20003;BME280;10162;41.600;23.806;2023-04-25T08:24:50;94417.91;;;15.91;86.99
20003;BME280;10162;41.600;23.806;2023-04-25T08:27:20;94435.03;;;16.10;87.57
20003;BME280;10162;41.600;23.806;2023-04-25T08:30:11;94442.63;;;16.50;84.78
20003;BME280;10162;41.600;23.806;2023-04-25T08:32:40;94422.44;;;15.74;86.67
20003;BME280;10162;41.600;23.806;2023-04-25T08:35:26;94429.94;;;16.03;88.17
20003;BME280;10162;41.600;23.806;2023-04-25T08:37:53;94423.47;;;15.73;88.79
20003;BME280;10162;41.600;23.806;2023-04-25T08:40:22;94424.94;;;15.47;89.54
20003;BME280;10162;41.600;23.806;2023-04-25T08:43:00;94436.94;;;15.54;91.30
20003;BME280;10162;41.600;23.806;2023-04-25T08:45:31;94434.34;;;16.41;85.29
20003;BME280;10162;41.600;23.806;2023-04-25T08:47:58;94433.59;;;16.68;83.72
20003;BME280;10162;41.600;23.806;2023-04-25T08:53:26;94434.16;;;16.26;83.91
20003;BME280;10162;41.600;23.806;2023-04-25T08:55:54;94423.25;;;16.39;78.60
20003;BME280;10162;41.600;23.806;2023-04-25T08:58:20;94430.50;;;16.76;78.18
20003;BME280;10162;41.600;23.806;2023-04-25T09:01:23;94439.47;;;16.75;73.22
20003;BME280;10162;41.600;23.806;2023-04-25T09:03:52;94419.78;;;16.87;71.48
20003;BME280;10162;41.600;23.806;2023-04-25T09:06:19;94409.56;;;16.96;72.34
20003;BME280;10162;41.600;23.806;2023-04-25T09:08:49;94414.47;;;17.88;68.96
20003;BME280;10162;41.600;23.806;2023-04-25T09:11:15;94409.53;;;16.91;69.83
20003;BME280;10162;41.600;23.806;2023-04-25T09:13:42;94393.34;;;17.93;72.11
20003;BME280;10162;41.600;23.806;2023-04-25T09:16:11;94409.81;;;18.15;70.34
20003;BME280;10162;41.600;23.806;2023-04-25T09:18:57;94388.56;;;18.00;70.60
20003;BME280;10162;41.600;23.806;2023-04-25T09:21:34;94396.16;;;18.49;71.14
20003;BME280;10162;41.600;23.806;2023-04-25T09:24:02;94399.44;;;17.57;70.15
20003;BME280;10162;41.600;23.806;2023-04-25T09:26:28;94407.28;;;17.42;69.65
20003;BME280;10162;41.600;23.806;2023-04-25T09:29:06;94398.66;;;17.56;70.02
20003;BME280;10162;41.600;23.806;2023-04-25T09:31:50;94385.56;;;18.39;66.76
20003;BME280;10162;41.600;23.806;2023-04-25T09:34:16;94372.03;;;18.35;63.40
20003;BME280;10162;41.600;23.806;2023-04-25T09:36:48;94376.38;;;18.56;62.47
20003;BME280;10162;41.600;23.806;2023-04-25T09:39:45;94370.97;;;18.26;61.54
20003;BME280;10162;41.600;23.806;2023-04-25T09:42:16;94380.38;;;18.79;60.33
20003;BME280;10162;41.600;23.806;2023-04-25T09:44:46;94367.09;;;18.74;60.06
20003;BME280;10162;41.600;23.806;2023-04-25T09:47:14;94354.41;;;18.81;61.26
20003;BME280;10162;41.600;23.806;2023-04-25T09:49:44;94355.97;;;19.38;61.21
20003;BME280;10162;41.600;23.806;2023-04-25T09:52:16;94375.06;;;19.30;56.61
20003;BME280;10162;41.600;23.806;2023-04-25T09:55:07;94342.72;;;19.33;54.22
20003;BME280;10162;41.600;23.806;2023-04-25T09:57:35;94358.88;;;19.42;58.45
20003;BME280;10162;41.600;23.806;2023-04-25T10:00:09;94342.47;;;19.29;55.21
20003;BME280;10162;41.600;23.806;2023-04-25T10:02:42;94355.44;;;18.60;56.18
20003;BME280;10162;41.600;23.806;2023-04-25T10:05:27;94337.19;;;18.84;57.96
20003;BME280;10162;41.600;23.806;2023-04-25T10:07:57;94328.97;;;19.11;57.19
20003;BME280;10162;41.600;23.806;2023-04-25T10:10:28;94315.44;;;19.27;61.87
20003;BME280;10162;41.600;23.806;2023-04-25T10:12:56;94310.94;;;19.18;58.08
20003;BME280;10162;41.600;23.806;2023-04-25T10:15:22;94326.00;;;19.42;55.24
20003;BME280;10162;41.600;23.806;2023-04-25T10:17:49;94314.38;;;19.23;55.73
20003;BME280;10162;41.600;23.806;2023-04-25T10:20:18;94309.84;;;19.39;55.04
20003;BME280;10162;41.600;23.806;2023-04-25T10:22:45;94316.97;;;19.64;54.00
20003;BME280;10162;41.600;23.806;2023-04-25T10:25:14;94296.88;;;19.48;52.44
20003;BME280;10162;41.600;23.806;2023-04-25T10:27:42;94307.53;;;18.87;52.47
20003;BME280;10162;41.600;23.806;2023-04-25T10:30:13;94298.16;;;20.19;53.81
20003;BME280;10162;41.600;23.806;2023-04-25T10:32:44;94300.63;;;20.01;53.92
20003;BME280;10162;41.600;23.806;2023-04-25T10:35:24;94289.03;;;19.87;53.51
20003;BME280;10162;41.600;23.806;2023-04-25T10:38:11;94285.31;;;19.83;52.30
20003;BME280;10162;41.600;23.806;2023-04-25T10:40:41;94273.94;;;19.77;50.94
20003;BME280;10162;41.600;23.806;2023-04-25T10:43:44;94276.31;;;19.78;49.23
20003;BME280;10162;41.600;23.806;2023-04-25T10:48:56;94242.78;;;20.03;47.71
20003;BME280;10162;41.600;23.806;2023-04-25T10:51:38;94243.75;;;19.68;51.61
20003;BME280;10162;41.600;23.806;2023-04-25T10:54:06;94262.63;;;20.54;53.00
20003;BME280;10162;41.600;23.806;2023-04-25T10:59:11;94253.22;;;20.28;48.95
20003;BME280;10162;41.600;23.806;2023-04-25T11:01:56;94254.63;;;20.20;46.80
20003;BME280;10162;41.600;23.806;2023-04-25T11:04:32;94232.34;;;19.67;47.11
20003;BME280;10162;41.600;23.806;2023-04-25T11:09:33;94247.66;;;18.45;49.05
20003;BME280;10162;41.600;23.806;2023-04-25T11:12:03;94231.03;;;18.65;49.88
20003;BME280;10162;41.600;23.806;2023-04-25T11:14:28;94227.84;;;18.83;48.66
20003;BME280;10162;41.600;23.806;2023-04-25T11:16:56;94224.88;;;19.00;48.92
20003;BME280;10162;41.600;23.806;2023-04-25T11:19:23;94244.63;;;19.43;48.61
20003;BME280;10162;41.600;23.806;2023-04-25T11:22:02;94228.97;;;19.57;47.68
20003;BME280;10162;41.600;23.806;2023-04-25T11:24:30;94229.16;;;19.75;47.49
20003;BME280;10162;41.600;23.806;2023-04-25T11:26:58;94215.28;;;19.24;49.20
20003;BME280;10162;41.600;23.806;2023-04-25T11:29:29;94234.63;;;19.15;49.08
20003;BME280;10162;41.600;23.806;2023-04-25T11:32:02;94234.72;;;18.89;48.92
20003;BME280;10162;41.600;23.806;2023-04-25T11:34:29;94235.00;;;18.68;50.10
20003;BME280;10162;41.600;23.806;2023-04-25T11:36:58;94243.16;;;18.31;49.04
20003;BME280;10162;41.600;23.806;2023-04-25T11:39:26;94212.97;;;17.86;49.74
20003;BME280;10162;41.600;23.806;2023-04-25T11:41:52;94248.66;;;17.89;49.56
20003;BME280;10162;41.600;23.806;2023-04-25T11:44:19;94236.84;;;17.44;50.94
20003;BME280;10162;41.600;23.806;2023-04-25T11:46:45;94264.38;;;17.53;53.61
20003;BME280;10162;41.600;23.806;2023-04-25T11:49:12;94240.75;;;16.79;58.13
20003;BME280;10162;41.600;23.806;2023-04-25T11:51:40;94271.97;;;16.56;64.58
20003;BME280;10162;41.600;23.806;2023-04-25T11:54:07;94264.63;;;15.55;69.68
20003;BME280;10162;41.600;23.806;2023-04-25T11:56:33;94260.50;;;15.21;77.93
20003;BME280;10162;41.600;23.806;2023-04-25T11:59:02;94300.97;;;14.15;80.69
20003;BME280;10162;41.600;23.806;2023-04-25T12:01:37;94258.16;;;14.02;84.56
20003;BME280;10162;41.600;23.806;2023-04-25T12:06:44;94230.66;;;16.71;79.23
20003;BME280;10162;41.600;23.806;2023-04-25T12:09:13;94214.56;;;16.68;75.51
20003;BME280;10162;41.600;23.806;2023-04-25T12:12:09;94224.63;;;17.23;74.95
20003;BME280;10162;41.600;23.806;2023-04-25T12:14:35;94203.53;;;17.38;70.77
20003;BME280;10162;41.600;23.806;2023-04-25T12:17:03;94228.56;;;17.83;66.76
20003;BME280;10162;41.600;23.806;2023-04-25T12:19:37;94223.59;;;18.42;64.61
20003;BME280;10162;41.600;23.806;2023-04-25T12:22:19;94202.41;;;18.82;60.19
20003;BME280;10162;41.600;23.806;2023-04-25T12:24:48;94192.06;;;19.70;58.49
20003;BME280;10162;41.600;23.806;2023-04-25T12:27:15;94193.75;;;19.46;57.05
20003;BME280;10162;41.600;23.806;2023-04-25T12:29:51;94197.34;;;18.96;55.19
20003;BME280;10162;41.600;23.806;2023-04-25T12:32:17;94186.19;;;19.04;55.07
20003;BME280;10162;41.600;23.806;2023-04-25T12:34:44;94204.63;;;19.34;52.87
20003;BME280;10162;41.600;23.806;2023-04-25T12:37:11;94171.94;;;19.64;52.21
20003;BME280;10162;41.600;23.806;2023-04-25T12:39:37;94205.16;;;19.42;51.31
20003;BME280;10162;41.600;23.806;2023-04-25T12:42:03;94196.28;;;19.66;52.91
20003;BME280;10162;41.600;23.806;2023-04-25T12:44:32;94198.75;;;19.58;50.23
20003;BME280;10162;41.600;23.806;2023-04-25T12:46:59;94171.84;;;19.79;48.51
20003;BME280;10162;41.600;23.806;2023-04-25T12:49:25;94188.88;;;19.68;48.56
20003;BME280;10162;41.600;23.806;2023-04-25T12:51:55;94188.97;;;19.53;50.20
20003;BME280;10162;41.600;23.806;2023-04-25T12:54:21;94182.53;;;19.64;50.00
20003;BME280;10162;41.600;23.806;2023-04-25T12:56:47;94199.28;;;19.50;49.14
20003;BME280;10162;41.600;23.806;2023-04-25T12:59:13;94175.84;;;19.03;49.61
20003;BME280;10162;41.600;23.806;2023-04-25T13:01:42;94206.41;;;19.59;52.57
20003;BME280;10162;41.600;23.806;2023-04-25T13:04:08;94202.28;;;19.28;47.72
20003;BME280;10162;41.600;23.806;2023-04-25T13:06:35;94193.47;;;20.36;45.56
20003;BME280;10162;41.600;23.806;2023-04-25T13:09:01;94205.19;;;20.30;46.92
20003;BME280;10162;41.600;23.806;2023-04-25T13:11:32;94189.59;;;19.79;45.17
20003;BME280;10162;41.600;23.806;2023-04-25T13:13:58;94191.16;;;19.26;45.66
20003;BME280;10162;41.600;23.806;2023-04-25T13:16:23;94198.97;;;18.82;43.46
20003;BME280;10162;41.600;23.806;2023-04-25T13:18:50;94201.53;;;19.17;47.00
20003;BME280;10162;41.600;23.806;2023-04-25T13:21:21;94192.50;;;19.18;45.43
20003;BME280;10162;41.600;23.806;2023-04-25T13:23:48;94179.72;;;19.35;45.37
20003;BME280;10162;41.600;23.806;2023-04-25T13:26:13;94180.09;;;19.04;45.32
20003;BME280;10162;41.600;23.806;2023-04-25T13:28:39;94173.47;;;19.11;48.03
20003;BME280;10162;41.600;23.806;2023-04-25T13:31:07;94191.03;;;18.36;46.82
20003;BME280;10162;41.600;23.806;2023-04-25T13:33:39;94200.56;;;18.32;47.84
20003;BME280;10162;41.600;23.806;2023-04-25T13:36:05;94206.38;;;18.14;48.21
20003;BME280;10162;41.600;23.806;2023-04-25T13:38:31;94229.69;;;18.27;47.89
20003;BME280;10162;41.600;23.806;2023-04-25T13:41:06;94196.78;;;17.72;50.36
20003;BME280;10162;41.600;23.806;2023-04-25T13:43:33;94212.44;;;17.17;52.00
20003;BME280;10162;41.600;23.806;2023-04-25T13:45:59;94233.38;;;16.86;54.03
20003;BME280;10162;41.600;23.806;2023-04-25T13:48:25;94213.31;;;16.48;57.61
20003;BME280;10162;41.600;23.806;2023-04-25T13:50:52;94215.22;;;16.21;59.72
20003;BME280;10162;41.600;23.806;2023-04-25T13:53:17;94226.72;;;16.74;59.76
20003;BME280;10162;41.600;23.806;2023-04-25T13:55:43;94201.56;;;16.61;58.59
20003;BME280;10162;41.600;23.806;2023-04-25T13:58:13;94204.06;;;17.35;58.61
20003;BME280;10162;41.600;23.806;2023-04-25T14:00:57;94219.13;;;17.40;59.80
20003;BME280;10162;41.600;23.806;2023-04-25T14:03:27;94219.16;;;17.45;58.63
20003;BME280;10162;41.600;23.806;2023-04-25T14:05:52;94204.47;;;16.60;59.13
20003;BME280;10162;41.600;23.806;2023-04-25T14:08:18;94218.50;;;17.12;59.78
20003;BME280;10162;41.600;23.806;2023-04-25T14:10:44;94207.72;;;16.72;60.56
20003;BME280;10162;41.600;23.806;2023-04-25T14:13:09;94193.34;;;17.00;60.21
20003;BME280;10162;41.600;23.806;2023-04-25T14:15:35;94206.56;;;17.05;59.57
20003;BME280;10162;41.600;23.806;2023-04-25T14:18:02;94194.50;;;16.72;59.95
20003;BME280;10162;41.600;23.806;2023-04-25T14:20:34;94197.56;;;16.96;59.33
20003;BME280;10162;41.600;23.806;2023-04-25T14:23:00;94194.16;;;17.05;59.85
20003;BME280;10162;41.600;23.806;2023-04-25T14:25:27;94173.44;;;16.77;61.20
20003;BME280;10162;41.600;23.806;2023-04-25T14:27:53;94154.91;;;15.66;64.92
20003;BME280;10162;41.600;23.806;2023-04-25T14:30:20;94199.53;;;16.68;63.01
20003;BME280;10162;41.600;23.806;2023-04-25T14:32:48;94164.81;;;16.91;61.57
20003;BME280;10162;41.600;23.806;2023-04-25T14:35:32;94181.59;;;17.32;61.21
20003;BME280;10162;41.600;23.806;2023-04-25T14:37:57;94164.25;;;16.84;60.63
20003;BME280;10162;41.600;23.806;2023-04-25T14:40:23;94166.97;;;17.10;56.94
20003;BME280;10162;41.600;23.806;2023-04-25T14:42:50;94175.34;;;16.49;55.51
20003;BME280;10162;41.600;23.806;2023-04-25T14:45:16;94162.69;;;16.93;55.44
20003;BME280;10162;41.600;23.806;2023-04-25T14:47:42;94169.13;;;16.61;55.53
20003;BME280;10162;41.600;23.806;2023-04-25T14:50:09;94194.53;;;17.29;54.53
20003;BME280;10162;41.600;23.806;2023-04-25T14:52:35;94167.31;;;16.71;54.88
20003;BME280;10162;41.600;23.806;2023-04-25T14:55:02;94168.16;;;16.77;54.45
20003;BME280;10162;41.600;23.806;2023-04-25T14:57:33;94177.84;;;17.13;53.61
20003;BME280;10162;41.600;23.806;2023-04-25T14:59:59;94184.63;;;16.99;54.49
20003;BME280;10162;41.600;23.806;2023-04-25T15:02:25;94187.66;;;16.76;54.73
20003;BME280;10162;41.600;23.806;2023-04-25T15:04:52;94175.94;;;18.01;52.81
20003;BME280;10162;41.600;23.806;2023-04-25T15:07:19;94185.22;;;18.39;51.27
20003;BME280;10162;41.600;23.806;2023-04-25T15:09:47;94189.47;;;18.20;51.11
20003;BME280;10162;41.600;23.806;2023-04-25T15:12:13;94154.25;;;17.74;50.29
20003;BME280;10162;41.600;23.806;2023-04-25T15:14:39;94186.88;;;16.75;53.34
20003;BME280;10162;41.600;23.806;2023-04-25T15:17:05;94168.88;;;17.14;53.30
20003;BME280;10162;41.600;23.806;2023-04-25T15:19:31;94166.66;;;16.96;52.91
20003;BME280;10162;41.600;23.806;2023-04-25T15:21:58;94173.09;;;17.20;52.37
20003;BME280;10162;41.600;23.806;2023-04-25T15:24:30;94182.84;;;17.92;50.38
20003;BME280;10162;41.600;23.806;2023-04-25T15:26:56;94157.31;;;17.35;51.11
20003;BME280;10162;41.600;23.806;2023-04-25T15:29:22;94187.06;;;17.93;50.50
20003;BME280;10162;41.600;23.806;2023-04-25T15:31:47;94148.44;;;17.82;49.94
20003;BME280;10162;41.600;23.806;2023-04-25T15:34:13;94172.28;;;17.15;50.95